Time;durP1;ratioP1;P1;durP2;ratioP2;P2;SDS_P1;SDS_P2;PMS_P1;PMS_P2;Temp;Humidity;BMP_temperature;BMP_pressure;BME280_temperature;BME280_humidity;BME280_pressure;Samples;Min_cycle;Max_cycle;Signal;HPM_P1;HPM_P2
2023/07/03 00:01:21;;;;;;;8.37;7.50;;;;;;;16.67;100.00;98980.31;5109096;28;20191;-75
2023/07/03 00:03:51;;;;;;;7.87;7.07;;;;;;;16.65;100.00;98978.97;5112689;28;20325;-76
2023/07/03 00:06:18;;;;;;;7.87;7.07;;;;;;;16.66;100.00;98975.16;5112728;28;20189;-74
2023/07/03 00:08:45;;;;;;;7.30;6.60;;;;;;;16.66;100.00;98977.88;5112599;28;20244;-75
2023/07/03 00:11:11;;;;;;;8.13;7.30;;;;;;;16.65;100.00;98976.28;5111148;28;20196;-75
2023/07/03 00:13:38;;;;;;;8.43;7.60;;;;;;;16.63;100.00;98990.06;5106718;28;20257;-76
2023/07/03 00:16:05;;;;;;;8.17;7.37;;;;;;;16.59;100.00;98988.19;5110889;28;20221;-74
2023/07/03 00:18:31;;;;;;;8.60;7.13;;;;;;;16.55;100.00;98989.78;5097284;28;20232;-75
2023/07/03 00:20:58;;;;;;;8.17;7.37;;;;;;;16.47;100.00;98977.63;5098915;28;20276;-75
2023/07/03 00:23:26;;;;;;;9.67;7.40;;;;;;;16.38;100.00;98981.97;5092252;28;20206;-75
2023/07/03 00:25:53;;;;;;;8.73;6.93;;;;;;;16.32;100.00;98979.56;5096934;28;20194;-75
2023/07/03 00:28:20;;;;;;;8.17;7.37;;;;;;;16.21;100.00;98981.44;5092080;28;20223;-75
2023/07/03 00:30:46;;;;;;;9.57;7.10;;;;;;;16.14;100.00;98972.81;5099567;28;20192;-74
2023/07/03 00:33:14;;;;;;;8.37;7.43;;;;;;;16.09;100.00;98973.63;5101137;28;20653;-75
2023/07/03 00:35:42;;;;;;;8.43;7.53;;;;;;;16.03;100.00;98976.59;5083067;28;20231;-75
2023/07/03 00:38:09;;;;;;;8.10;7.30;;;;;;;15.98;100.00;98980.09;5105895;28;20613;-75
2023/07/03 00:40:35;;;;;;;7.97;7.13;;;;;;;15.95;100.00;98974.44;5086012;28;20287;-75
2023/07/03 00:43:03;;;;;;;9.10;7.30;;;;;;;15.89;100.00;98986.31;5100863;28;20188;-75
2023/07/03 00:45:32;;;;;;;7.90;7.10;;;;;;;15.84;100.00;98982.53;5103721;28;20690;-77
2023/07/03 00:47:59;;;;;;;8.37;7.50;;;;;;;15.80;100.00;98980.66;5093893;28;20188;-75
2023/07/03 00:50:26;;;;;;;8.83;7.17;;;;;;;15.83;100.00;98985.50;5093734;28;20237;-75
2023/07/03 00:52:58;;;;;;;9.60;7.93;;;;;;;15.79;100.00;98984.41;5109729;28;20637;-76
2023/07/03 00:55:25;;;;;;;8.93;7.80;;;;;;;15.78;100.00;98983.59;5091920;28;20642;-75
2023/07/03 00:57:52;;;;;;;9.13;8.13;;;;;;;15.76;100.00;98991.19;5107073;28;20188;-81
2023/07/03 01:00:21;;;;;;;9.13;8.00;;;;;;;15.67;100.00;98989.28;5112069;28;20191;-74
2023/07/03 01:02:57;;;;;;;9.37;7.80;;;;;;;15.67;100.00;98986.56;5076057;28;20238;-75
2023/07/03 01:05:30;;;;;;;9.10;8.20;;;;;;;15.61;100.00;98983.06;5093088;28;20231;-75
2023/07/03 01:08:00;;;;;;;8.43;7.57;;;;;;;15.59;100.00;98976.28;5110508;28;20326;-75
2023/07/03 01:10:28;;;;;;;9.87;8.10;;;;;;;15.58;100.00;98983.59;5085488;28;20263;-74
2023/07/03 01:13:02;;;;;;;9.97;8.30;;;;;;;15.56;100.00;98984.94;5070260;28;20226;-74
2023/07/03 01:15:32;;;;;;;9.73;7.87;;;;;;;15.58;100.00;98983.59;5081747;28;20294;-76
2023/07/03 01:18:01;;;;;;;9.87;8.10;;;;;;;15.60;100.00;98984.13;5093179;28;20187;-75
2023/07/03 01:20:32;;;;;;;9.53;8.03;;;;;;;15.57;100.00;98973.06;5090405;28;20219;-75
2023/07/03 01:23:05;;;;;;;9.13;8.23;;;;;;;15.54;100.00;98979.00;5075452;28;20211;-74
2023/07/03 01:25:32;;;;;;;9.30;8.37;;;;;;;15.49;100.00;98970.84;5100699;28;20196;-75
2023/07/03 01:28:00;;;;;;;8.40;7.60;;;;;;;15.47;100.00;98976.50;5111318;28;20545;-76
2023/07/03 01:30:28;;;;;;;9.23;8.03;;;;;;;15.47;100.00;98973.81;5111436;28;20562;-74
2023/07/03 01:32:56;;;;;;;10.13;8.37;;;;;;;15.49;100.00;98978.97;5111150;28;20676;-75
2023/07/03 01:35:23;;;;;;;9.50;8.53;;;;;;;15.49;100.00;98981.66;5108782;28;20741;-75
2023/07/03 01:37:52;;;;;;;10.53;8.67;;;;;;;15.51;100.00;98988.44;5092761;28;20283;-76
2023/07/03 01:40:23;;;;;;;10.03;7.70;;;;;;;15.49;100.00;98985.13;5087920;28;20203;-74
2023/07/03 01:42:51;;;;;;;10.07;8.27;;;;;;;15.49;100.00;98978.97;5097485;28;20195;-75
2023/07/03 01:45:17;;;;;;;9.80;8.80;;;;;;;15.44;100.00;98972.44;5097603;28;20670;-74
2023/07/03 01:47:44;;;;;;;9.53;8.20;;;;;;;15.42;100.00;98985.41;5115383;28;20192;-75
2023/07/03 01:50:15;;;;;;;9.07;8.13;;;;;;;15.44;100.00;98982.47;5097130;28;20279;-75
2023/07/03 01:52:56;;;;;;;9.80;8.30;;;;;;;15.49;100.00;98981.66;5092611;28;20581;-74
2023/07/03 01:55:46;;;;;;;10.57;8.47;;;;;;;15.47;100.00;98989.19;5091130;28;20221;-76
2023/07/03 01:58:13;;;;;;;9.70;8.50;;;;;;;15.46;100.00;98990.28;5093048;28;20210;-74
2023/07/03 02:00:48;;;;;;;10.00;9.00;;;;;;;15.51;100.00;98995.72;5096846;28;20219;-74
2023/07/03 02:03:25;;;;;;;10.63;8.63;;;;;;;15.57;100.00;98991.97;5086922;28;20990;-74
2023/07/03 02:05:54;;;;;;;10.03;9.03;;;;;;;15.58;100.00;98988.19;5096142;28;20598;-75
2023/07/03 02:08:22;;;;;;;9.93;8.83;;;;;;;15.51;100.00;98983.03;5090164;28;20240;-74
2023/07/03 02:10:49;;;;;;;10.30;9.10;;;;;;;15.45;100.00;98984.06;5087485;28;20195;-74
2023/07/03 02:13:16;;;;;;;11.83;9.57;;;;;;;15.41;100.00;98988.38;5077065;28;20244;-75
2023/07/03 02:15:42;;;;;;;10.50;9.00;;;;;;;15.40;100.00;98981.34;5096389;28;20299;-75
2023/07/03 02:18:17;;;;;;;10.73;9.17;;;;;;;15.36;100.00;98981.06;5093734;28;20249;-74
2023/07/03 02:20:45;;;;;;;11.40;9.70;;;;;;;15.34;100.00;98983.25;5096117;28;20215;-74
2023/07/03 02:23:12;;;;;;;9.87;8.87;;;;;;;15.31;100.00;98991.03;5088330;28;20196;-75
2023/07/03 02:25:46;;;;;;;9.70;8.80;;;;;;;15.28;100.00;98987.00;5109985;28;20199;-76
2023/07/03 02:28:13;;;;;;;10.40;9.30;;;;;;;15.30;100.00;98982.13;5108940;28;20268;-75
2023/07/03 02:30:39;;;;;;;9.87;8.87;;;;;;;15.27;100.00;98993.47;5110846;28;20195;-75
2023/07/03 02:33:10;;;;;;;10.33;8.97;;;;;;;15.26;100.00;98991.03;5089094;28;20202;-76
2023/07/03 02:35:41;;;;;;;10.60;9.50;;;;;;;15.27;100.00;98995.34;5107776;28;20219;-75
2023/07/03 02:38:09;;;;;;;9.83;8.83;;;;;;;15.28;100.00;98986.19;5114294;28;20274;-75
2023/07/03 02:40:38;;;;;;;10.70;8.67;;;;;;;15.24;100.00;98991.31;5095821;28;20203;-75
2023/07/03 02:43:04;;;;;;;10.47;9.33;;;;;;;15.25;100.00;98990.22;5114172;28;20199;-74
2023/07/03 02:45:39;;;;;;;11.13;9.13;;;;;;;15.26;100.00;98991.03;5095953;28;20210;-76
2023/07/03 02:48:09;;;;;;;10.10;9.10;;;;;;;15.25;100.00;98990.22;5093119;28;20573;-75
2023/07/03 02:50:39;;;;;;;10.00;9.00;;;;;;;15.26;100.00;98988.31;5079143;28;20226;-74
2023/07/03 02:53:07;;;;;;;10.47;9.37;;;;;;;15.24;100.00;98991.31;5114111;28;20188;-75
2023/07/03 02:55:34;;;;;;;11.20;9.97;;;;;;;15.24;100.00;98996.69;5094359;28;20230;-74
2023/07/03 02:58:01;;;;;;;10.43;9.43;;;;;;;15.29;100.00;98996.72;5095856;28;20219;-75
2023/07/03 03:00:32;;;;;;;10.53;9.40;;;;;;;15.29;100.00;98995.91;5094467;28;20203;-74
2023/07/03 03:02:59;;;;;;;11.20;10.00;;;;;;;15.28;100.00;98989.69;5114105;28;20204;-75
2023/07/03 03:05:26;;;;;;;10.53;9.43;;;;;;;15.28;100.00;98994.28;5114162;28;20199;-75
2023/07/03 03:07:53;;;;;;;11.87;10.07;;;;;;;15.28;100.00;98991.56;5101295;28;20199;-75
2023/07/03 03:10:19;;;;;;;12.43;9.90;;;;;;;15.29;100.00;98994.03;5083538;28;20188;-75
2023/07/03 03:12:46;;;;;;;10.83;9.73;;;;;;;15.31;100.00;98997.25;5072007;28;20229;-75
2023/07/03 03:15:13;;;;;;;10.87;9.83;;;;;;;15.34;100.00;99002.13;5106720;28;20208;-74
2023/07/03 03:17:39;;;;;;;11.83;9.73;;;;;;;15.34;100.00;99006.72;5087426;28;20187;-74
2023/07/03 03:20:09;;;;;;;11.27;9.40;;;;;;;15.36;100.00;99015.34;5087156;28;20257;-74
2023/07/03 03:22:35;;;;;;;11.10;9.67;;;;;;;15.35;100.00;99002.94;5099167;28;20895;-77
2023/07/03 03:25:02;;;;;;;11.00;9.73;;;;;;;15.42;100.00;99000.78;5092713;28;20321;-74
2023/07/03 03:27:29;;;;;;;10.83;9.63;;;;;;;15.43;100.00;99005.13;5095013;28;20199;-74
2023/07/03 03:29:56;;;;;;;11.73;9.90;;;;;;;15.44;100.00;99009.44;5110473;28;20191;-75
2023/07/03 03:32:22;;;;;;;10.73;9.63;;;;;;;15.42;100.00;98993.50;5091959;28;20275;-76
2023/07/03 03:34:50;;;;;;;10.60;9.50;;;;;;;15.38;100.00;98992.44;5095375;28;20239;-75
2023/07/03 03:37:17;;;;;;;11.30;9.10;;;;;;;15.40;100.00;98992.94;5095453;28;20554;-74
2023/07/03 03:39:44;;;;;;;11.57;10.03;;;;;;;15.42;100.00;98998.91;5078525;28;20200;-74
2023/07/03 03:42:11;;;;;;;11.33;10.13;;;;;;;15.46;100.00;99001.88;5113543;28;20309;-74
2023/07/03 03:44:38;;;;;;;12.07;9.40;;;;;;;15.51;100.00;99001.94;5093709;28;20199;-74
2023/07/03 03:47:05;;;;;;;10.63;9.53;;;;;;;15.54;100.00;98997.91;5113401;28;20203;-75
2023/07/03 03:49:32;;;;;;;12.67;10.43;;;;;;;15.61;100.00;99001.94;5113399;28;20184;-75
2023/07/03 03:51:59;;;;;;;11.30;10.20;;;;;;;15.70;100.00;99002.22;5095097;28;20199;-76
2023/07/03 03:54:29;;;;;;;13.47;10.30;;;;;;;15.82;100.00;98995.50;5113288;28;20256;-77
2023/07/03 03:56:55;;;;;;;12.73;10.43;;;;;;;15.92;100.00;98996.56;5113461;28;20257;-77
2023/07/03 03:59:23;;;;;;;11.30;10.20;;;;;;;16.02;100.00;99002.81;5095081;28;20283;-74
2023/07/03 04:01:51;;;;;;;11.60;10.40;;;;;;;16.12;100.00;99008.22;5094464;28;20638;-75
2023/07/03 04:04:18;;;;;;;13.10;10.23;;;;;;;16.23;100.00;99009.84;5095590;28;21278;-74
2023/07/03 04:06:44;;;;;;;12.10;9.93;;;;;;;16.36;100.00;99002.25;5106616;28;20203;-75
2023/07/03 04:09:11;;;;;;;12.40;9.57;;;;;;;16.49;100.00;99009.81;5112765;28;20698;-75
2023/07/03 04:11:38;;;;;;;11.73;9.83;;;;;;;17.44;100.00;99022.25;5112585;28;20224;-75
2023/07/03 04:14:04;;;;;;;11.00;9.90;;;;;;;19.23;100.00;99017.72;5107551;28;20192;-74
2023/07/03 04:16:32;;;;;;;11.37;9.90;;;;;;;20.67;100.00;99020.44;5109615;28;20204;-74
2023/07/03 04:18:58;;;;;;;10.73;9.53;;;;;;;21.92;100.00;99026.34;5109627;28;20219;-74
2023/07/03 04:21:25;;;;;;;10.00;9.00;;;;;;;23.02;100.00;99025.78;5112486;28;20236;-76
2023/07/03 04:23:51;;;;;;;10.73;9.00;;;;;;;23.94;100.00;99019.22;5107003;28;20204;-76
2023/07/03 04:26:18;;;;;;;11.93;9.17;;;;;;;24.71;100.00;99021.06;5112513;28;20218;-75
2023/07/03 04:28:45;;;;;;;10.60;9.40;;;;;;;25.33;100.00;99015.84;5112023;28;20203;-75
2023/07/03 04:31:11;;;;;;;10.57;9.47;;;;;;;25.59;100.00;99015.69;5112276;28;20190;-75
2023/07/03 04:33:38;;;;;;;10.93;9.80;;;;;;;26.01;100.00;99014.56;5112222;28;20673;-75
2023/07/03 04:36:05;;;;;;;10.33;9.23;;;;;;;26.44;97.75;99018.91;5110763;28;20254;-75
2023/07/03 04:38:32;;;;;;;9.30;8.30;;;;;;;26.71;94.17;99013.56;5112286;28;20630;-75
2023/07/03 04:40:59;;;;;;;10.32;9.23;;;;;;;26.39;93.12;99016.34;5109098;28;20674;-75
2023/07/03 04:43:25;;;;;;;9.67;8.67;;;;;;;25.03;97.86;99019.69;5112182;28;20274;-76
2023/07/03 04:45:53;;;;;;;10.27;9.27;;;;;;;24.08;100.00;99025.34;5112155;28;20191;-76
2023/07/03 04:48:20;;;;;;;11.30;9.10;;;;;;;23.35;100.00;99032.47;5112208;28;20199;-75
2023/07/03 04:50:48;;;;;;;10.43;9.33;;;;;;;22.38;100.00;99025.25;5112026;28;20266;-75
2023/07/03 04:53:19;;;;;;;10.15;9.15;;;;;;;22.07;100.00;99032.59;5112112;28;20217;-75
2023/07/03 04:55:45;;;;;;;13.65;10.27;;;;;;;22.17;100.00;99032.31;5111971;28;20480;-75
2023/07/03 04:58:12;;;;;;;11.65;9.98;;;;;;;22.43;100.00;99036.06;5110407;28;20198;-75
2023/07/03 05:00:40;;;;;;;10.82;9.40;;;;;;;22.71;100.00;99051.19;5092840;28;20187;-75
2023/07/03 05:03:08;;;;;;;12.73;9.75;;;;;;;22.75;100.00;99049.44;5091452;28;20701;-74
2023/07/03 05:05:35;;;;;;;12.18;10.00;;;;;;;22.63;100.00;99057.34;5091230;28;20234;-74
2023/07/03 05:08:02;;;;;;;10.73;8.98;;;;;;;22.51;100.00;99057.13;5101523;28;20223;-75
2023/07/03 05:10:30;;;;;;;11.55;9.73;;;;;;;22.35;100.00;99055.88;5096331;28;20245;-74
2023/07/03 05:12:57;;;;;;;11.90;10.18;;;;;;;22.26;100.00;99049.56;5099474;28;20192;-75
2023/07/03 05:15:24;;;;;;;11.40;9.75;;;;;;;22.35;100.00;99058.59;5110980;28;20243;-74
2023/07/03 05:17:54;;;;;;;10.73;9.73;;;;;;;22.33;100.00;99049.94;5111543;28;20302;-75
2023/07/03 05:20:22;;;;;;;12.30;10.07;;;;;;;22.16;100.00;99052.56;5112071;28;20241;-75
2023/07/03 05:22:49;;;;;;;11.23;10.13;;;;;;;22.30;100.00;99056.81;5113657;28;20249;-74
2023/07/03 05:25:16;;;;;;;10.43;9.43;;;;;;;22.45;100.00;99065.75;5102862;28;20439;-75
2023/07/03 05:27:43;;;;;;;12.23;9.90;;;;;;;22.36;100.00;99069.22;5115808;28;20236;-75
2023/07/03 05:30:11;;;;;;;10.35;9.35;;;;;;;22.46;100.00;99070.09;5115158;28;20219;-75
2023/07/03 05:32:37;;;;;;;10.40;9.45;;;;;;;22.53;100.00;99065.00;5103192;28;20215;-74
2023/07/03 05:35:05;;;;;;;11.00;9.90;;;;;;;22.60;100.00;99077.09;5107677;28;20698;-75
2023/07/03 05:37:33;;;;;;;11.07;9.98;;;;;;;22.58;100.00;99070.34;5106494;28;20225;-74
2023/07/03 05:39:59;;;;;;;10.43;9.48;;;;;;;22.70;100.00;99079.59;5104150;28;20271;-75
2023/07/03 05:42:26;;;;;;;11.02;9.98;;;;;;;22.73;100.00;99078.16;5105748;28;20611;-79
2023/07/03 05:44:53;;;;;;;10.98;9.82;;;;;;;22.85;100.00;99086.59;5103127;28;20249;-74
2023/07/03 05:47:19;;;;;;;12.98;10.23;;;;;;;23.03;100.00;99082.84;5103414;28;20219;-77
2023/07/03 05:49:48;;;;;;;11.65;9.88;;;;;;;23.20;100.00;99084.81;5104633;28;21220;-74
2023/07/03 05:52:15;;;;;;;10.85;9.75;;;;;;;23.31;100.00;99088.09;5115332;28;20728;-75
2023/07/03 05:54:41;;;;;;;11.93;10.48;;;;;;;23.39;100.00;99088.13;5111099;28;20221;-74
2023/07/03 05:57:10;;;;;;;11.07;9.75;;;;;;;23.36;100.00;99090.69;5107546;28;20200;-75
2023/07/03 05:59:38;;;;;;;13.15;10.23;;;;;;;23.37;100.00;99090.38;5108908;28;20252;-75
2023/07/03 06:02:11;;;;;;;11.18;9.73;;;;;;;23.41;100.00;99093.28;5105858;28;20591;-74
2023/07/03 06:04:38;;;;;;;10.93;9.85;;;;;;;23.44;100.00;99096.19;5103065;28;20227;-77
2023/07/03 06:07:06;;;;;;;11.43;10.23;;;;;;;23.50;100.00;99094.13;5108968;28;20571;-75
2023/07/03 06:09:33;;;;;;;11.25;9.82;;;;;;;23.56;100.00;99092.88;5109061;28;20227;-77
2023/07/03 06:12:02;;;;;;;12.82;10.18;;;;;;;23.63;100.00;99095.94;5103945;28;20226;-75
2023/07/03 06:14:30;;;;;;;11.32;9.57;;;;;;;23.90;100.00;99095.66;5104928;28;20188;-75
2023/07/03 06:16:58;;;;;;;12.10;10.75;;;;;;;24.25;100.00;99102.00;5101740;28;20286;-76
2023/07/03 06:19:26;;;;;;;10.10;9.20;;;;;;;24.43;100.00;99103.63;5107611;28;20587;-78
2023/07/03 06:21:53;;;;;;;10.65;9.55;;;;;;;24.68;100.00;99093.75;5105452;28;20592;-77
2023/07/03 06:24:20;;;;;;;11.27;10.07;;;;;;;24.78;100.00;99104.34;5095628;28;20284;-75
2023/07/03 06:26:47;;;;;;;11.38;10.20;;;;;;;25.07;100.00;99100.13;5109621;28;20204;-74
2023/07/03 06:29:14;;;;;;;10.18;9.05;;;;;;;25.24;100.00;99094.59;5111570;28;20613;-74
2023/07/03 06:31:41;;;;;;;10.90;9.77;;;;;;;25.49;100.00;99095.59;5109891;28;20204;-77
2023/07/03 06:34:08;;;;;;;13.30;9.82;;;;;;;25.60;100.00;99099.59;5111401;28;20210;-77
2023/07/03 06:36:35;;;;;;;11.77;10.25;;;;;;;25.70;100.00;99102.78;5110222;28;20876;-77
2023/07/03 06:39:04;;;;;;;11.77;9.77;;;;;;;25.77;100.00;99096.75;5088421;28;20247;-77
2023/07/03 06:41:34;;;;;;;11.75;9.70;;;;;;;26.24;100.00;99098.22;5097259;28;20196;-77
2023/07/03 06:44:02;;;;;;;11.48;9.85;;;;;;;26.49;100.00;99101.09;5100725;28;20210;-77
2023/07/03 06:46:29;;;;;;;11.73;9.23;;;;;;;26.76;100.00;99096.94;5103795;28;20188;-76
2023/07/03 06:48:56;;;;;;;11.15;10.05;;;;;;;26.87;100.00;99095.41;5101575;28;20277;-77
2023/07/03 06:51:24;;;;;;;10.52;9.52;;;;;;;27.08;100.00;99098.88;5106649;28;20196;-77
2023/07/03 06:53:50;;;;;;;11.75;10.00;;;;;;;27.14;100.00;99095.56;5108887;28;20594;-76
2023/07/03 06:56:17;;;;;;;11.40;9.70;;;;;;;27.14;100.00;99100.25;5106885;28;20272;-77
2023/07/03 06:58:44;;;;;;;10.13;9.13;;;;;;;27.15;100.00;99105.44;5101071;28;20286;-77
2023/07/03 07:01:12;;;;;;;11.23;9.48;;;;;;;27.34;100.00;99104.84;5106162;28;20184;-76
2023/07/03 07:03:39;;;;;;;11.52;9.48;;;;;;;27.47;100.00;99103.72;5106207;28;20223;-76
2023/07/03 07:06:22;;;;;;;10.40;8.65;;;;;;;27.63;100.00;99103.84;5105867;28;20269;-78
2023/07/03 07:08:49;;;;;;;9.60;8.60;;;;;;;27.71;99.18;99093.91;5103725;28;20216;-79
2023/07/03 07:11:23;;;;;;;9.20;8.35;;;;;;;27.80;98.03;99091.81;5087936;28;20204;-77
2023/07/03 07:13:51;;;;;;;9.60;8.60;;;;;;;27.76;97.17;99088.97;5103193;28;20249;-78
2023/07/03 07:16:24;;;;;;;9.25;7.88;;;;;;;27.74;92.44;99088.50;5107038;28;20212;-77
2023/07/03 07:18:56;;;;;;;8.38;7.57;;;;;;;27.97;88.38;99092.34;5084159;28;20219;-77
2023/07/03 07:21:23;;;;;;;8.57;7.75;;;;;;;27.74;89.45;99085.75;5107381;28;20722;-77
2023/07/03 07:23:54;;;;;;;8.80;8.00;;;;;;;28.13;89.54;99091.66;5104515;28;20211;-77
2023/07/03 07:26:23;;;;;;;8.38;7.57;;;;;;;28.82;87.32;99089.34;5107970;28;20531;-77
2023/07/03 07:28:49;;;;;;;8.55;7.75;;;;;;;29.11;83.47;99079.84;5103372;28;20189;-77
2023/07/03 07:31:21;;;;;;;9.10;8.05;;;;;;;29.41;82.83;99080.22;5104909;28;20607;-76
2023/07/03 07:33:48;;;;;;;9.40;8.45;;;;;;;29.19;81.27;99078.88;5104986;28;20294;-77
2023/07/03 07:36:16;;;;;;;9.75;8.27;;;;;;;29.33;79.30;99072.94;5105169;28;20495;-77
2023/07/03 07:38:42;;;;;;;9.18;8.25;;;;;;;29.43;79.02;99071.59;5103567;28;20562;-76
2023/07/03 07:41:10;;;;;;;10.30;8.10;;;;;;;29.02;77.65;99070.16;5108195;28;20207;-77
2023/07/03 07:43:37;;;;;;;9.10;8.30;;;;;;;28.72;78.75;99073.31;5106307;28;20188;-77
2023/07/03 07:46:03;;;;;;;8.98;8.18;;;;;;;28.68;78.39;99066.06;5105333;28;20265;-78
2023/07/03 07:48:31;;;;;;;8.75;7.95;;;;;;;28.62;76.70;99071.03;5097544;28;20277;-77
2023/07/03 07:51:00;;;;;;;8.48;7.68;;;;;;;28.59;76.08;99068.19;5094589;28;20188;-78
2023/07/03 07:53:29;;;;;;;9.00;8.20;;;;;;;28.99;75.59;99070.84;5080508;28;20222;-78
2023/07/03 07:55:58;;;;;;;9.25;8.32;;;;;;;29.67;73.77;99072.19;5082003;28;20216;-76
2023/07/03 07:58:25;;;;;;;9.43;8.15;;;;;;;30.09;72.05;99077.88;5104056;28;20688;-76
2023/07/03 08:00:54;;;;;;;9.40;8.50;;;;;;;30.19;70.28;99074.53;5101296;28;20212;-78
2023/07/03 08:03:20;;;;;;;9.10;8.20;;;;;;;30.43;70.23;99078.16;5100011;28;20204;-76
2023/07/03 08:05:47;;;;;;;9.18;8.30;;;;;;;30.43;70.40;99078.16;5102628;28;20263;-77
2023/07/03 08:08:15;;;;;;;8.90;8.00;;;;;;;30.26;69.53;99075.84;5100375;28;20266;-78
2023/07/03 08:10:41;;;;;;;9.68;8.50;;;;;;;30.36;67.66;99078.84;5111980;28;20610;-76
2023/07/03 08:13:08;;;;;;;9.32;8.43;;;;;;;30.50;67.04;99064.53;5092657;28;20682;-77
2023/07/03 08:15:35;;;;;;;9.43;8.43;;;;;;;30.61;66.88;99071.03;5112320;28;20232;-77
2023/07/03 08:18:02;;;;;;;9.80;8.90;;;;;;;30.57;66.16;99070.19;5112187;28;20195;-77
2023/07/03 08:20:28;;;;;;;9.35;8.45;;;;;;;30.75;65.72;99071.31;5099198;28;20210;-77
2023/07/03 08:22:55;;;;;;;9.80;8.88;;;;;;;30.60;65.86;99073.03;5112154;28;20689;-78
2023/07/03 08:25:22;;;;;;;8.85;8.05;;;;;;;30.83;67.49;99077.78;5107721;28;20188;-78
2023/07/03 08:27:48;;;;;;;9.82;8.82;;;;;;;31.00;67.07;99082.84;5112007;28;20192;-77
2023/07/03 08:30:15;;;;;;;9.20;8.30;;;;;;;31.10;66.33;99081.47;5111847;28;20199;-77
2023/07/03 08:32:43;;;;;;;12.18;8.93;;;;;;;31.21;66.29;99083.25;5111947;28;20313;-77
2023/07/03 08:35:10;;;;;;;9.80;8.93;;;;;;;31.26;64.22;99077.38;5112093;28;20674;-76
2023/07/03 08:37:40;;;;;;;10.52;9.52;;;;;;;31.45;62.69;99077.31;5111933;28;20271;-76
2023/07/03 08:40:07;;;;;;;9.77;8.88;;;;;;;31.57;63.66;99081.06;5091222;28;20249;-76
2023/07/03 08:42:39;;;;;;;10.73;9.63;;;;;;;31.92;62.51;99081.59;5112038;28;20248;-76
2023/07/03 08:45:07;;;;;;;10.55;9.63;;;;;;;32.02;62.14;99080.94;5097381;28;20201;-77
2023/07/03 08:47:34;;;;;;;10.43;9.45;;;;;;;32.17;60.62;99079.19;5068523;28;20271;-77
2023/07/03 08:50:03;;;;;;;10.30;9.32;;;;;;;32.18;60.91;99087.13;5086424;28;20196;-77
2023/07/03 08:52:39;;;;;;;11.40;10.20;;;;;;;32.21;58.38;99077.25;5084203;28;20674;-77
2023/07/03 08:55:07;;;;;;;11.13;10.07;;;;;;;32.34;59.81;99086.91;5090540;28;20201;-78
2023/07/03 08:57:36;;;;;;;10.88;9.73;;;;;;;32.57;58.29;99084.81;5078073;28;20247;-77
2023/07/03 09:00:10;;;;;;;10.73;9.73;;;;;;;32.87;58.72;99092.31;5089885;28;20623;-77
2023/07/03 09:02:50;;;;;;;11.38;9.88;;;;;;;33.15;57.49;99084.28;5076926;28;20193;-77
2023/07/03 09:05:36;;;;;;;10.93;9.70;;;;;;;33.30;55.94;99088.00;5102266;28;20266;-77
2023/07/03 09:08:05;;;;;;;10.52;9.52;;;;;;;33.38;54.88;99084.88;5092731;28;20191;-76
2023/07/03 09:10:36;;;;;;;10.43;9.43;;;;;;;33.69;53.94;99091.88;5067752;28;20650;-78
2023/07/03 09:13:10;;;;;;;11.20;9.65;;;;;;;33.66;53.67;99089.06;5102515;28;20647;-78
2023/07/03 09:16:07;;;;;;;11.40;10.27;;;;;;;33.67;54.09;99090.69;5092082;28;20219;-77
2023/07/03 09:18:46;;;;;;;11.00;10.00;;;;;;;33.69;53.78;99086.31;5091885;28;20193;-77
2023/07/03 09:21:13;;;;;;;11.43;10.27;;;;;;;33.41;53.47;99081.31;5089599;28;20505;-77
2023/07/03 09:24:08;;;;;;;11.52;10.45;;;;;;;33.23;53.82;99083.16;5111492;28;20238;-77
2023/07/03 09:26:48;;;;;;;11.68;10.57;;;;;;;33.23;55.14;99082.38;5111232;28;20198;-78
2023/07/03 09:29:15;;;;;;;12.60;10.38;;;;;;;33.62;53.70;99080.69;5093290;28;20277;-77
2023/07/03 09:31:42;;;;;;;12.23;10.98;;;;;;;33.75;54.70;99076.44;5093186;28;20219;-77
2023/07/03 09:34:09;;;;;;;13.02;11.13;;;;;;;33.31;54.40;99072.94;5111168;28;20219;-78
2023/07/03 09:36:39;;;;;;;12.48;11.18;;;;;;;32.86;53.61;99083.19;5109503;28;20682;-77
2023/07/03 09:39:12;;;;;;;12.32;11.02;;;;;;;32.78;54.77;99075.97;5090089;28;20240;-77
2023/07/03 09:41:40;;;;;;;12.55;10.20;;;;;;;32.76;54.96;99075.53;5105891;28;20618;-76
2023/07/03 09:44:10;;;;;;;10.77;9.77;;;;;;;32.69;53.74;99070.75;5109589;28;20727;-78
2023/07/03 09:46:39;;;;;;;10.98;9.75;;;;;;;32.66;53.49;99079.78;5109935;28;20576;-79
2023/07/03 09:49:17;;;;;;;12.23;10.18;;;;;;;32.72;53.29;99072.75;5110358;28;20271;-75
2023/07/03 09:51:49;;;;;;;10.82;9.48;;;;;;;32.67;53.00;99075.84;5092642;28;20556;-75
2023/07/03 09:54:21;;;;;;;10.98;9.70;;;;;;;32.63;54.68;99072.25;5086844;28;20211;-75
2023/07/03 09:56:49;;;;;;;10.82;9.82;;;;;;;32.65;52.83;99071.88;5101286;28;20220;-76
2023/07/03 09:59:19;;;;;;;11.38;10.27;;;;;;;32.32;51.86;99075.44;5099978;28;20200;-75
2023/07/03 10:01:47;;;;;;;10.10;9.20;;;;;;;32.30;52.20;99078.56;5104492;28;20187;-78
2023/07/03 10:04:17;;;;;;;10.70;9.60;;;;;;;32.41;53.37;99083.44;5109280;28;20231;-78
2023/07/03 10:07:01;;;;;;;10.10;9.10;;;;;;;32.45;53.65;99076.78;5102264;28;20215;-77
2023/07/03 10:09:34;;;;;;;10.35;9.35;;;;;;;32.40;53.51;99073.53;5087701;28;20220;-77
2023/07/03 10:12:10;;;;;;;10.75;9.75;;;;;;;32.35;53.52;99074.66;5099117;28;20188;-77
2023/07/03 10:14:42;;;;;;;9.82;8.93;;;;;;;32.40;52.40;99073.53;5099654;28;20195;-76
2023/07/03 10:17:12;;;;;;;10.27;9.25;;;;;;;32.41;51.12;99070.38;5101055;28;20270;-78
2023/07/03 10:19:46;;;;;;;10.82;9.68;;;;;;;32.56;52.40;99074.94;5098887;28;20191;-78
2023/07/03 10:22:14;;;;;;;13.20;9.30;;;;;;;32.63;51.15;99074.22;5081595;28;20204;-78
2023/07/03 10:24:41;;;;;;;9.60;8.68;;;;;;;32.86;50.97;99072.09;5087907;28;20753;-79
2023/07/03 10:27:07;;;;;;;9.60;8.68;;;;;;;32.89;50.43;99065.00;5080577;28;20204;-77
2023/07/03 10:29:49;;;;;;;9.73;8.82;;;;;;;32.80;49.35;99070.84;5104505;28;20607;-78
2023/07/03 10:32:17;;;;;;;9.88;8.95;;;;;;;32.86;49.35;99065.75;5078953;28;20308;-78
2023/07/03 10:34:54;;;;;;;10.63;9.48;;;;;;;32.82;49.19;99065.72;5101105;28;20549;-77
2023/07/03 10:37:22;;;;;;;9.38;8.38;;;;;;;32.91;49.12;99073.72;5091801;28;20585;-78
2023/07/03 10:40:09;;;;;;;9.27;8.30;;;;;;;33.00;48.54;99072.22;5094492;28;20626;-78
2023/07/03 10:42:41;;;;;;;9.73;8.73;;;;;;;33.35;49.62;99076.53;5113110;28;20192;-78
2023/07/03 10:45:11;;;;;;;9.80;8.90;;;;;;;33.38;45.49;99071.00;5089603;28;20196;-77
2023/07/03 10:47:59;;;;;;;10.15;9.05;;;;;;;33.50;46.14;99065.13;5109690;28;20219;-77
2023/07/03 10:50:32;;;;;;;10.13;9.15;;;;;;;33.62;46.13;99070.38;5106313;28;20241;-78
2023/07/03 10:53:01;;;;;;;9.63;8.73;;;;;;;34.05;45.85;99071.47;5080685;28;20205;-79
2023/07/03 10:55:45;;;;;;;9.68;8.68;;;;;;;34.05;47.27;99067.91;5107051;28;20188;-76
2023/07/03 10:58:24;;;;;;;9.88;8.88;;;;;;;33.90;48.21;99063.44;5099913;28;20188;-77
2023/07/03 11:01:03;;;;;;;9.23;8.35;;;;;;;33.61;48.55;99068.00;5080347;28;20210;-77
2023/07/03 11:03:50;;;;;;;11.23;8.48;;;;;;;33.52;49.59;99065.56;5102459;28;20319;-77
2023/07/03 11:06:57;;;;;;;9.68;8.70;;;;;;;33.39;50.38;99067.06;5113174;28;20188;-77
2023/07/03 11:09:30;;;;;;;8.98;8.20;;;;;;;33.54;49.37;99071.53;5110267;28;20221;-76
2023/07/03 11:12:14;;;;;;;9.00;8.20;;;;;;;33.59;49.30;99064.81;5113498;28;20187;-77
2023/07/03 11:15:15;;;;;;;9.60;8.57;;;;;;;33.68;48.55;99062.53;5105892;28;20654;-78
2023/07/03 11:17:53;;;;;;;9.85;8.82;;;;;;;33.44;48.21;99060.34;5103694;28;20587;-77
2023/07/03 11:20:36;;;;;;;9.68;8.70;;;;;;;32.93;49.21;99063.84;5108988;28;20187;-78
2023/07/03 11:23:16;;;;;;;9.02;8.13;;;;;;;32.69;48.96;99067.97;5096308;28;20528;-78
2023/07/03 11:25:53;;;;;;;9.90;8.88;;;;;;;33.00;48.59;99052.81;5107324;28;20202;-78
2023/07/03 11:28:30;;;;;;;9.25;8.35;;;;;;;33.26;48.83;99051.09;5113862;28;20577;-77
2023/07/03 11:31:00;;;;;;;9.07;8.27;;;;;;;33.34;49.62;99049.94;5074803;28;20198;-77
2023/07/03 11:33:29;;;;;;;9.65;8.65;;;;;;;33.50;47.39;99050.47;5086564;28;20203;-78